Time;durP1;ratioP1;P1;durP2;ratioP2;P2;SDS_P1;SDS_P2;PMS_P1;PMS_P2;Temp;Humidity;BMP_temperature;BMP_pressure;BME280_temperature;BME280_humidity;BME280_pressure;Samples;Min_cycle;Max_cycle;Signal;HPM_P1;HPM_P2
2023/11/19 00:01:02;;;;;;;3.60;3.20;;;;;;;-0.78;100.00;100885.83;88487;274;136826;-75
2023/11/19 00:03:05;;;;;;;4.80;3.00;;;;;;;-0.77;100.00;100883.63;88644;280;25144;-75
2023/11/19 00:05:13;;;;;;;3.30;3.00;;;;;;;-0.83;100.00;100885.41;88497;280;136722;-74
2023/11/19 00:07:16;;;;;;;3.90;3.60;;;;;;;-0.90;100.00;100887.46;88613;276;22545;-73
2023/11/19 00:09:22;;;;;;;3.70;3.40;;;;;;;-0.97;100.00;100880.23;88574;280;137504;-75
2023/11/19 00:11:24;;;;;;;5.20;3.50;;;;;;;-1.02;100.00;100878.14;88563;280;24055;-74
2023/11/19 00:13:26;;;;;;;4.60;3.50;;;;;;;-1.04;100.00;100881.04;88560;280;136597;-77
2023/11/19 00:15:28;;;;;;;3.70;2.60;;;;;;;-1.05;100.00;100880.10;88750;281;22526;-75
2023/11/19 00:17:30;;;;;;;4.10;3.70;;;;;;;-0.99;100.00;100880.88;88539;273;139071;-77
2023/11/19 00:19:32;;;;;;;4.70;3.50;;;;;;;-0.88;100.00;100880.55;88598;280;22547;-75
2023/11/19 00:21:34;;;;;;;4.60;3.10;;;;;;;-0.87;100.00;100874.16;88485;277;136352;-76
2023/11/19 00:23:36;;;;;;;3.70;3.10;;;;;;;-0.91;100.00;100872.36;88639;274;25137;-78
2023/11/19 00:25:39;;;;;;;4.20;3.70;;;;;;;-0.95;100.00;100876.61;88700;280;136376;-76
2023/11/19 00:27:41;;;;;;;3.70;3.40;;;;;;;-0.97;100.00;100881.47;89011;282;22560;-78
2023/11/19 00:29:46;;;;;;;4.50;3.80;;;;;;;-1.02;100.00;100873.73;88785;281;137294;-79
2023/11/19 00:31:48;;;;;;;4.20;3.40;;;;;;;-1.03;100.00;100875.41;88766;277;23975;-74
2023/11/19 00:33:50;;;;;;;3.40;3.10;;;;;;;-1.07;100.00;100875.84;88538;273;136450;-77
2023/11/19 00:35:52;;;;;;;3.40;3.00;;;;;;;-1.08;100.00;100879.04;88617;278;25248;-78
2023/11/19 00:37:55;;;;;;;3.90;3.50;;;;;;;-1.00;100.00;100880.43;88569;275;137797;-74
2023/11/19 00:39:59;;;;;;;3.60;3.20;;;;;;;-0.92;100.00;100882.72;88568;274;22405;-77
2023/11/19 00:42:01;;;;;;;3.60;3.30;;;;;;;-0.91;100.00;100883.16;88643;281;136818;-75
2023/11/19 00:44:03;;;;;;;3.40;3.10;;;;;;;-0.95;100.00;100879.05;88485;281;136534;-75
2023/11/19 00:46:07;;;;;;;4.60;3.90;;;;;;;-0.97;100.00;100882.33;88749;280;22606;-78
2023/11/19 00:48:10;;;;;;;3.60;3.30;;;;;;;-0.98;100.00;100890.27;88557;280;136534;-76
2023/11/19 00:50:13;;;;;;;4.60;3.30;;;;;;;-0.99;100.00;100889.11;88712;277;22530;-78
2023/11/19 00:52:18;;;;;;;5.00;3.60;;;;;;;-0.98;100.00;100888.33;88510;278;136066;-71
2023/11/19 00:54:20;;;;;;;6.60;4.50;;;;;;;-0.99;100.00;100883.49;88867;282;24061;-76
2023/11/19 00:56:23;;;;;;;3.80;3.50;;;;;;;-1.01;100.00;100877.85;88538;281;136777;-74
2023/11/19 00:58:24;;;;;;;3.70;3.30;;;;;;;-1.03;100.00;100874.20;88552;280;22912;-77
2023/11/19 01:00:27;;;;;;;3.70;3.40;;;;;;;-0.99;100.00;100872.31;88525;278;137016;-73
2023/11/19 01:02:30;;;;;;;3.70;3.40;;;;;;;-0.86;100.00;100869.59;88724;277;26244;-75
2023/11/19 01:04:36;;;;;;;3.60;3.30;;;;;;;-0.78;100.00;100872.05;88458;282;137564;-75
2023/11/19 01:06:38;;;;;;;5.60;3.60;;;;;;;-0.79;100.00;100869.83;88642;280;22770;-76
2023/11/19 01:08:50;;;;;;;3.80;3.50;;;;;;;-0.83;100.00;100869.36;88574;280;136495;-77
2023/11/19 01:10:52;;;;;;;5.00;4.10;;;;;;;-0.85;100.00;100865.65;88580;281;22773;-76
2023/11/19 01:12:54;;;;;;;3.60;3.30;;;;;;;-0.86;100.00;100861.92;88554;281;136411;-81
2023/11/19 01:14:59;;;;;;;4.30;4.00;;;;;;;-0.87;100.00;100863.90;88758;280;25782;-79
2023/11/19 01:17:02;;;;;;;3.60;3.30;;;;;;;-0.88;100.00;100867.98;88688;280;136260;-75
2023/11/19 01:19:05;;;;;;;4.80;4.00;;;;;;;-0.91;100.00;100862.77;88767;273;24014;-74
2023/11/19 01:21:19;;;;;;;4.20;3.50;;;;;;;-0.94;100.00;100861.08;88580;273;150948;-78
2023/11/19 01:23:21;;;;;;;4.30;3.70;;;;;;;-0.96;100.00;100857.67;88735;280;25118;-74
2023/11/19 01:25:23;;;;;;;4.30;3.30;;;;;;;-0.95;100.00;100856.43;88696;273;136094;-71
2023/11/19 01:27:25;;;;;;;3.20;2.90;;;;;;;-0.87;100.00;100858.98;88615;274;25216;-78
2023/11/19 01:29:27;;;;;;;3.40;3.10;;;;;;;-0.79;100.00;100858.32;88843;280;137444;-74
2023/11/19 01:31:29;;;;;;;3.60;3.10;;;;;;;-0.79;100.00;100852.37;88527;281;22527;-74
2023/11/19 01:33:32;;;;;;;4.60;3.70;;;;;;;-0.84;100.00;100851.98;88738;280;136105;-77
2023/11/19 01:35:35;;;;;;;4.40;3.20;;;;;;;-0.89;100.00;100848.47;88626;280;22544;-79
2023/11/19 01:37:38;;;;;;;3.50;3.00;;;;;;;-0.92;100.00;100847.80;88703;277;137678;-78
2023/11/19 01:39:40;;;;;;;3.30;3.00;;;;;;;-0.93;100.00;100842.86;88599;281;26839;-78
2023/11/19 01:41:41;;;;;;;3.30;3.00;;;;;;;-0.99;100.00;100839.72;88712;279;137121;-78
2023/11/19 01:43:47;;;;;;;5.30;3.50;;;;;;;-1.04;100.00;100840.19;88818;277;25168;-74
2023/11/19 01:45:50;;;;;;;3.90;3.30;;;;;;;-1.10;100.00;100836.79;88548;273;137708;-75
2023/11/19 01:47:52;;;;;;;3.60;3.30;;;;;;;-1.09;100.00;100834.49;88729;281;22531;-75
2023/11/19 01:49:56;;;;;;;4.10;3.20;;;;;;;-1.04;100.00;100831.13;88585;280;136600;-77
2023/11/19 01:51:59;;;;;;;2.50;2.30;;;;;;;-0.97;100.00;100832.66;88634;273;22534;-72
2023/11/19 01:54:01;;;;;;;3.80;3.40;;;;;;;-0.99;100.00;100835.38;88572;281;136471;-78
2023/11/19 01:56:08;;;;;;;3.40;2.90;;;;;;;-1.03;100.00;100835.44;88566;280;136746;-76
2023/11/19 01:58:12;;;;;;;4.00;3.40;;;;;;;-1.06;100.00;100834.75;88545;276;25312;-74
2023/11/19 02:00:16;;;;;;;3.80;3.40;;;;;;;-1.11;100.00;100839.65;88999;281;136454;-73
2023/11/19 02:02:20;;;;;;;3.70;3.50;;;;;;;-1.17;100.00;100835.31;88737;273;22549;-74
2023/11/19 02:04:22;;;;;;;5.10;3.50;;;;;;;-1.23;100.00;100831.39;88649;280;138190;-75
2023/11/19 02:06:28;;;;;;;4.50;3.80;;;;;;;-1.27;100.00;100826.58;88768;280;25183;-73
2023/11/19 02:08:31;;;;;;;8.60;3.70;;;;;;;-1.23;100.00;100825.97;88649;280;137952;-75
2023/11/19 02:10:33;;;;;;;3.60;3.20;;;;;;;-1.14;100.00;100830.43;88581;282;22532;-76
2023/11/19 02:12:37;;;;;;;3.10;2.80;;;;;;;-1.09;100.00;100829.92;88591;273;136408;-72
2023/11/19 02:14:39;;;;;;;4.00;3.00;;;;;;;-1.09;100.00;100832.20;88590;281;25201;-73
2023/11/19 02:16:42;;;;;;;4.00;3.10;;;;;;;-1.10;100.00;100830.52;88616;280;136246;-74
2023/11/19 02:18:46;;;;;;;5.20;3.90;;;;;;;-1.28;100.00;100801.20;88677;280;24015;-75
2023/11/19 02:20:50;;;;;;;3.60;3.30;;;;;;;-1.13;100.00;100828.98;88547;273;136967;-77
2023/11/19 02:22:52;;;;;;;3.50;3.10;;;;;;;-1.12;100.00;100826.32;88586;280;22555;-72
2023/11/19 02:25:00;;;;;;;3.80;3.50;;;;;;;-1.13;100.00;100827.23;88533;274;136403;-76
2023/11/19 02:27:10;;;;;;;3.90;2.90;;;;;;;-1.14;100.00;100822.96;88803;277;22551;-77
2023/11/19 02:29:15;;;;;;;4.30;3.90;;;;;;;-1.14;100.00;100821.87;88635;280;137132;-74
2023/11/19 02:31:17;;;;;;;3.00;2.50;;;;;;;-1.09;100.00;100819.29;88896;277;23710;-72
2023/11/19 02:33:19;;;;;;;2.90;2.60;;;;;;;-1.10;100.00;100810.26;88701;280;137765;-73
2023/11/19 02:35:21;;;;;;;3.70;3.40;;;;;;;-1.08;100.00;100818.84;88745;282;25170;-74
2023/11/19 02:37:23;;;;;;;10.80;3.30;;;;;;;-1.12;100.00;100818.81;88545;277;136966;-77
2023/11/19 02:39:26;;;;;;;3.80;3.50;;;;;;;-1.15;100.00;100821.73;88580;282;25168;-73
2023/11/19 02:41:29;;;;;;;4.00;3.30;;;;;;;-1.18;100.00;100826.49;88641;277;137945;-69
2023/11/19 02:43:33;;;;;;;3.40;3.20;;;;;;;-1.21;100.00;100827.73;88608;273;22533;-72
2023/11/19 02:45:35;;;;;;;4.50;3.40;;;;;;;-1.23;100.00;100831.69;89190;282;137126;-73
2023/11/19 02:47:39;;;;;;;4.60;3.80;;;;;;;-1.24;100.00;100825.84;90017;280;25093;-73
2023/11/19 02:49:41;;;;;;;3.60;3.20;;;;;;;-1.21;100.00;100823.38;88744;280;136731;-72
2023/11/19 02:51:43;;;;;;;4.00;2.90;;;;;;;-1.15;100.00;100820.40;88685;280;22486;-67
2023/11/19 02:53:48;;;;;;;3.20;2.70;;;;;;;-1.05;100.00;100817.46;88688;280;138422;-70
2023/11/19 02:55:50;;;;;;;;;;;;;;;-1.00;100.00;100814.52;88329;281;23975;-72
2023/11/19 02:57:53;;;;;;;2.60;2.40;;;;;;;-1.10;100.00;100799.81;88415;274;123025;-73
2023/11/19 02:59:56;;;;;;;3.10;2.60;;;;;;;-1.09;100.00;100813.02;88731;281;22744;-76
2023/11/19 03:01:59;;;;;;;4.30;2.90;;;;;;;-1.13;100.00;100808.25;88414;281;136789;-73
2023/11/19 03:04:02;;;;;;;3.40;3.20;;;;;;;-1.16;100.00;100809.98;88573;282;23320;-73
2023/11/19 03:06:06;;;;;;;3.30;3.00;;;;;;;-1.21;100.00;100806.30;88543;281;22538;-76
2023/11/19 03:08:08;;;;;;;4.20;3.10;;;;;;;-1.26;100.00;100802.27;88675;273;137245;-73
2023/11/19 03:10:13;;;;;;;3.60;3.30;;;;;;;-1.31;100.00;100796.98;88559;274;22575;-75
2023/11/19 03:12:16;;;;;;;3.00;2.80;;;;;;;-1.30;100.00;100792.23;88480;274;136353;-74
2023/11/19 03:14:18;;;;;;;3.00;2.60;;;;;;;-1.24;100.00;100788.70;88622;277;22517;-75
2023/11/19 03:16:20;;;;;;;3.50;2.50;;;;;;;-1.18;100.00;100782.88;88499;274;140632;-75
2023/11/19 03:18:22;;;;;;;3.10;2.90;;;;;;;-1.18;100.00;100780.25;88669;273;25313;-76
2023/11/19 03:20:27;;;;;;;4.20;3.00;;;;;;;-1.20;100.00;100774.48;88611;280;136201;-75
2023/11/19 03:22:29;;;;;;;3.30;3.10;;;;;;;-1.20;100.00;100773.25;88681;281;22563;-74
2023/11/19 03:24:32;;;;;;;4.00;3.30;;;;;;;-1.23;100.00;100769.09;88553;272;136165;-73
2023/11/19 03:26:34;;;;;;;6.10;3.50;;;;;;;-1.28;100.00;100770.80;88720;280;25093;-75
2023/11/19 03:28:36;;;;;;;3.00;2.20;;;;;;;-1.35;100.00;100773.21;88665;281;136391;-75
2023/11/19 03:30:38;;;;;;;3.20;3.00;;;;;;;-1.37;100.00;100774.71;88739;281;22474;-74
2023/11/19 03:32:40;;;;;;;2.30;2.10;;;;;;;-1.31;100.00;100768.97;88460;277;137771;-74
2023/11/19 03:34:43;;;;;;;2.90;2.70;;;;;;;-1.26;100.00;100764.77;88684;281;22527;-77
2023/11/19 03:36:45;;;;;;;3.70;3.40;;;;;;;-1.29;100.00;100768.61;88815;277;136031;-75
2023/11/19 03:38:47;;;;;;;3.50;3.20;;;;;;;-1.33;100.00;100769.25;89217;280;22525;-71
2023/11/19 03:40:49;;;;;;;2.70;2.40;;;;;;;-1.39;100.00;100768.02;88783;277;136204;-73
2023/11/19 03:42:51;;;;;;;3.30;2.90;;;;;;;-1.43;100.00;100766.73;88776;281;25143;-72
2023/11/19 03:44:54;;;;;;;2.50;2.30;;;;;;;-1.47;100.00;100765.11;88498;274;136541;-74
2023/11/19 03:46:56;;;;;;;2.90;2.60;;;;;;;-1.51;100.00;100761.19;91433;281;22394;-71
2023/11/19 03:48:58;;;;;;;2.90;2.70;;;;;;;-1.45;100.00;100760.77;89785;281;138018;-74
2023/11/19 03:51:00;;;;;;;2.90;2.40;;;;;;;-1.35;100.00;100761.89;88570;280;22562;-75
2023/11/19 03:53:04;;;;;;;3.80;3.40;;;;;;;-1.35;100.00;100760.45;88631;272;137141;-74
2023/11/19 03:55:08;;;;;;;3.00;2.50;;;;;;;-1.39;100.00;100759.85;88851;281;22531;-75
2023/11/19 03:57:11;;;;;;;3.20;2.90;;;;;;;-1.40;100.00;100757.81;88621;281;135850;-74
2023/11/19 03:59:15;;;;;;;2.70;2.50;;;;;;;-1.41;100.00;100759.11;88770;277;24106;-77
2023/11/19 04:01:19;;;;;;;3.50;3.20;;;;;;;-1.43;100.00;100760.47;88496;274;135995;-74
2023/11/19 04:03:21;;;;;;;2.70;2.40;;;;;;;-1.47;100.00;100757.09;88625;273;22537;-74
2023/11/19 04:05:23;;;;;;;2.80;2.20;;;;;;;-1.44;100.00;100759.00;88537;273;138031;-76
2023/11/19 04:07:25;;;;;;;3.70;2.70;;;;;;;-1.38;100.00;100750.52;88711;274;22530;-73
2023/11/19 04:09:27;;;;;;;3.20;2.70;;;;;;;-1.32;100.00;100748.25;88538;273;136609;-76
2023/11/19 04:11:29;;;;;;;3.40;2.90;;;;;;;-1.32;100.00;100746.83;88634;273;22776;-74
2023/11/19 04:13:32;;;;;;;4.00;3.00;;;;;;;-1.38;100.00;100755.98;88635;273;136001;-70
2023/11/19 04:15:34;;;;;;;2.80;2.60;;;;;;;-1.45;100.00;100750.98;88705;273;22549;-74
2023/11/19 04:17:37;;;;;;;3.10;2.90;;;;;;;-1.47;100.00;100752.36;88555;273;136229;-76
2023/11/19 04:19:41;;;;;;;2.70;2.50;;;;;;;-1.49;100.00;100754.05;88656;279;22594;-76
2023/11/19 04:21:43;;;;;;;3.60;3.30;;;;;;;-1.50;100.00;100749.09;88594;273;136095;-76
2023/11/19 04:23:45;;;;;;;2.50;2.30;;;;;;;-1.50;100.00;100741.05;88972;273;22557;-73
2023/11/19 04:25:47;;;;;;;2.70;2.10;;;;;;;-1.43;100.00;100736.77;89016;280;136900;-74
2023/11/19 04:27:49;;;;;;;2.60;2.30;;;;;;;-1.38;100.00;100735.89;88702;280;22479;-73
2023/11/19 04:29:51;;;;;;;2.40;2.20;;;;;;;-1.40;100.00;100735.83;88595;280;136306;-77
2023/11/19 04:31:54;;;;;;;3.30;3.00;;;;;;;-1.44;100.00;100738.06;88605;280;22631;-76
2023/11/19 04:33:56;;;;;;;2.60;2.40;;;;;;;-1.46;100.00;100737.33;88675;281;136476;-77
2023/11/19 04:35:59;;;;;;;3.00;2.80;;;;;;;-1.47;100.00;100738.23;89114;281;22641;-74
2023/11/19 04:38:01;;;;;;;3.30;3.00;;;;;;;-1.46;100.00;100737.85;89318;280;137281;-73
2023/11/19 04:40:03;;;;;;;2.80;2.60;;;;;;;-1.46;100.00;100734.91;89272;278;136258;-72
2023/11/19 04:42:06;;;;;;;3.20;2.70;;;;;;;-1.47;100.00;100738.94;89999;273;23528;-75
2023/11/19 04:44:09;;;;;;;3.20;2.80;;;;;;;-1.39;100.00;100737.91;89856;277;137593;-74
2023/11/19 04:46:11;;;;;;;3.10;2.90;;;;;;;-1.30;100.00;100739.08;90145;280;22539;-73
2023/11/19 04:48:13;;;;;;;3.30;3.00;;;;;;;-1.24;100.00;100744.04;90748;280;136653;-74
2023/11/19 04:50:15;;;;;;;2.40;2.30;;;;;;;-1.24;100.00;100745.80;90998;282;22461;-72
2023/11/19 04:52:17;;;;;;;2.70;2.30;;;;;;;-1.26;100.00;100747.85;90824;280;136183;-71
2023/11/19 04:54:19;;;;;;;2.70;2.50;;;;;;;-1.30;100.00;100750.42;90440;277;22550;-74
2023/11/19 04:56:22;;;;;;;3.10;2.90;;;;;;;-1.34;100.00;100752.60;89752;281;136313;-72
2023/11/19 04:58:25;;;;;;;4.10;3.50;;;;;;;-1.36;100.00;100753.73;89079;282;22559;-73
2023/11/19 05:00:27;;;;;;;2.70;2.50;;;;;;;-1.38;100.00;100760.63;88906;280;136266;-74
2023/11/19 05:02:29;;;;;;;2.90;2.60;;;;;;;-1.40;100.00;100758.73;88720;277;22527;-69
2023/11/19 05:04:31;;;;;;;2.80;2.60;;;;;;;-1.46;100.00;100756.14;88486;280;136582;-68
2023/11/19 05:06:35;;;;;;;2.10;1.80;;;;;;;-1.41;100.00;100757.55;89949;277;22536;-74
2023/11/19 05:08:37;;;;;;;2.60;2.20;;;;;;;-1.33;100.00;100752.68;88580;273;137512;-74
2023/11/19 05:10:39;;;;;;;2.70;2.50;;;;;;;-1.31;100.00;100755.85;88509;277;22542;-69
2023/11/19 05:12:41;;;;;;;2.70;2.50;;;;;;;-1.34;100.00;100754.15;88169;274;136285;-73
2023/11/19 05:14:49;;;;;;;3.40;2.60;;;;;;;-1.40;100.00;100745.77;88324;273;25211;-71
2023/11/19 05:16:51;;;;;;;3.50;2.90;;;;;;;-1.53;100.00;100733.95;88572;281;136292;-71
2023/11/19 05:18:54;;;;;;;3.00;2.40;;;;;;;-1.51;100.00;100740.59;88399;281;24722;-74
2023/11/19 05:20:56;;;;;;;3.30;3.00;;;;;;;-1.55;100.00;100735.14;88219;277;137161;-71
2023/11/19 05:23:00;;;;;;;3.00;2.30;;;;;;;-1.59;100.00;100739.02;88221;274;25153;-74
2023/11/19 05:25:02;;;;;;;2.40;2.20;;;;;;;-1.61;100.00;100736.20;88809;273;136356;-71
2023/11/19 05:27:05;;;;;;;4.40;2.20;;;;;;;-1.53;100.00;100742.13;88291;277;24013;-74
2023/11/19 05:29:06;;;;;;;22.90;3.50;;;;;;;-1.47;100.00;100735.65;88197;273;136385;-72
2023/11/19 05:31:08;;;;;;;3.00;2.70;;;;;;;-1.47;100.00;100729.72;88246;273;23063;-73
2023/11/19 05:33:10;;;;;;;2.70;2.50;;;;;;;-1.48;100.00;100731.88;88079;273;136813;-71
2023/11/19 05:35:12;;;;;;;3.90;2.90;;;;;;;-1.53;100.00;100730.48;88195;273;22534;-74
2023/11/19 05:37:14;;;;;;;3.70;2.50;;;;;;;-1.48;100.00;100736.58;88140;273;136284;-73
2023/11/19 05:39:18;;;;;;;3.70;3.10;;;;;;;-1.48;100.00;100736.73;88177;273;25188;-73
2023/11/19 05:41:21;;;;;;;2.20;2.10;;;;;;;-1.47;100.00;100734.44;88112;274;136318;-73
2023/11/19 05:43:23;;;;;;;5.00;3.10;;;;;;;-1.50;100.00;100731.62;88508;274;24046;-73
2023/11/19 05:45:27;;;;;;;3.00;2.80;;;;;;;-1.54;100.00;100736.30;88747;274;135975;-75
2023/11/19 05:47:29;;;;;;;1.90;1.80;;;;;;;-1.55;100.00;100740.67;88380;275;22607;-75
2023/11/19 05:49:35;;;;;;;2.40;2.20;;;;;;;-1.47;100.00;100738.05;88185;273;136680;-74
2023/11/19 05:51:41;;;;;;;2.70;2.40;;;;;;;-1.42;100.00;100732.14;88572;279;25151;-69
2023/11/19 05:53:43;;;;;;;2.80;2.60;;;;;;;-1.42;100.00;100726.04;88144;277;136099;-76
2023/11/19 05:55:57;;;;;;;3.80;2.80;;;;;;;-1.42;100.00;100719.11;88250;273;22773;-70
2023/11/19 05:57:59;;;;;;;2.80;2.60;;;;;;;-1.54;100.00;100703.52;88424;273;137794;-70
2023/11/19 06:00:03;;;;;;;2.70;2.50;;;;;;;-1.51;100.00;100722.31;88827;273;22704;-70
2023/11/19 06:02:12;;;;;;;3.20;2.80;;;;;;;-1.57;100.00;100720.61;89900;280;27106;-71
2023/11/19 06:04:14;;;;;;;2.10;2.00;;;;;;;-1.62;100.00;100720.42;88678;272;138748;-74
2023/11/19 06:06:16;;;;;;;2.30;2.10;;;;;;;-1.65;100.00;100715.01;88533;273;22441;-69
2023/11/19 06:08:20;;;;;;;2.80;2.50;;;;;;;-1.68;100.00;100710.90;88214;274;136056;-68
2023/11/19 06:10:24;;;;;;;2.10;2.00;;;;;;;-1.64;100.00;100716.52;89378;273;23979;-68
2023/11/19 06:12:27;;;;;;;1.70;1.60;;;;;;;-1.53;100.00;100717.75;88382;274;137201;-67
2023/11/19 06:14:29;;;;;;;2.60;2.30;;;;;;;-1.46;100.00;100717.59;88182;272;25167;-70
2023/11/19 06:16:31;;;;;;;4.20;2.10;;;;;;;-1.44;100.00;100713.63;87999;273;136055;-69
2023/11/19 06:18:34;;;;;;;3.30;3.00;;;;;;;-1.48;100.00;100714.81;88285;272;24051;-70
2023/11/19 06:20:36;;;;;;;4.50;3.10;;;;;;;-1.51;100.00;100709.61;88218;272;137441;-69
2023/11/19 06:22:43;;;;;;;6.10;3.40;;;;;;;-1.53;100.00;100707.80;88309;281;22531;-69
2023/11/19 06:24:45;;;;;;;4.10;3.60;;;;;;;-1.54;100.00;100705.42;88168;277;137352;-69
2023/11/19 06:26:47;;;;;;;2.90;2.50;;;;;;;-1.58;100.00;100702.56;88229;273;22518;-74
2023/11/19 06:28:49;;;;;;;3.70;2.30;;;;;;;-1.61;100.00;100702.19;88110;273;135658;-70
2023/11/19 06:30:51;;;;;;;3.30;2.50;;;;;;;-1.63;100.00;100706.50;88343;273;22538;-70
2023/11/19 06:32:53;;;;;;;2.80;2.40;;;;;;;-1.62;100.00;100707.88;88347;277;136152;-71
2023/11/19 06:34:56;;;;;;;2.30;2.10;;;;;;;-1.62;100.00;100713.09;88462;277;22605;-78
2023/11/19 06:36:58;;;;;;;1.90;1.80;;;;;;;-1.63;100.00;100717.87;88311;274;136382;-77
2023/11/19 06:39:00;;;;;;;2.40;2.00;;;;;;;-1.67;100.00;100710.84;88559;273;24652;-76
2023/11/19 06:41:01;;;;;;;1.60;1.50;;;;;;;-1.71;100.00;100705.52;88802;277;136230;-73
2023/11/19 06:43:04;;;;;;;2.80;1.90;;;;;;;-1.74;100.00;100714.41;88553;273;26121;-75
2023/11/19 06:45:06;;;;;;;1.80;1.70;;;;;;;-1.77;100.00;100709.00;88415;280;135739;-77
2023/11/19 06:47:08;;;;;;;2.00;1.90;;;;;;;-1.78;100.00;100703.83;88563;274;22540;-75
2023/11/19 06:49:11;;;;;;;2.30;2.10;;;;;;;-1.78;100.00;100699.69;88437;273;136830;-76
2023/11/19 06:51:13;;;;;;;2.60;2.40;;;;;;;-1.77;100.00;100693.68;88492;273;22555;-74
2023/11/19 06:53:15;;;;;;;2.10;1.90;;;;;;;-1.77;100.00;100686.33;88354;273;137237;-76
2023/11/19 06:57:09;;;;;;;2.00;1.90;;;;;;;-1.80;100.00;100693.03;86929;303;602782;-79
2023/11/19 06:59:11;;;;;;;2.20;2.00;;;;;;;-1.95;99.62;100681.58;87894;285;24083;-77
2023/11/19 07:01:14;;;;;;;4.00;1.50;;;;;;;-1.89;99.81;100684.18;87660;287;137402;-73
2023/11/19 07:03:17;;;;;;;3.30;2.00;;;;;;;-1.92;100.00;100681.41;88446;285;25089;-76
2023/11/19 07:05:19;;;;;;;2.40;1.80;;;;;;;-1.92;100.00;100683.12;87818;291;135280;-77
2023/11/19 07:07:21;;;;;;;2.80;1.60;;;;;;;-1.91;100.00;100676.15;87847;289;22551;-77
2023/11/19 07:09:23;;;;;;;3.80;1.50;;;;;;;-1.92;100.00;100673.23;87774;284;138376;-75
2023/11/19 07:11:26;;;;;;;1.80;1.70;;;;;;;-1.92;100.00;100669.02;88052;287;683637;-72
2023/11/19 07:13:28;;;;;;;2.70;2.00;;;;;;;-1.89;100.00;100673.87;87866;282;136004;-76
2023/11/19 07:15:30;;;;;;;2.70;2.20;;;;;;;-1.84;100.00;100676.71;88218;282;24538;-72
2023/11/19 07:17:32;;;;;;;2.20;2.00;;;;;;;-1.80;100.00;100683.44;87911;283;135807;-75
2023/11/19 07:19:36;;;;;;;2.10;1.90;;;;;;;-1.79;100.00;100674.98;89147;290;22562;-76
2023/11/19 07:21:44;;;;;;;1.40;1.30;;;;;;;-1.72;100.00;100685.67;88713;281;136110;-73
2023/11/19 07:23:46;;;;;;;2.70;1.80;;;;;;;-1.57;99.86;100691.82;88390;285;22544;-74
2023/11/19 07:25:50;;;;;;;1.50;1.20;;;;;;;-1.51;99.56;100695.44;88350;277;139521;-77
2023/11/19 07:27:52;;;;;;;4.00;2.30;;;;;;;-1.53;99.20;100700.30;88614;282;22552;-75
2023/11/19 07:29:55;;;;;;;2.70;1.60;;;;;;;-1.56;98.88;100687.23;88386;277;135233;-78
2023/11/19 07:31:58;;;;;;;2.00;1.90;;;;;;;-1.57;99.15;100685.05;91051;286;22279;-78
2023/11/19 07:34:00;;;;;;;1.80;1.60;;;;;;;-1.56;99.14;100682.92;91010;285;136562;-77
2023/11/19 07:36:02;;;;;;;1.40;1.30;;;;;;;-1.55;98.62;100679.55;89644;285;23978;-77
2023/11/19 07:38:05;;;;;;;1.50;1.40;;;;;;;-1.56;98.76;100683.81;88490;283;22605;-75
2023/11/19 07:40:08;;;;;;;1.60;1.30;;;;;;;-1.60;98.63;100681.73;88801;283;135740;-77
2023/11/19 07:42:10;;;;;;;2.90;1.40;;;;;;;-1.61;98.42;100682.55;88581;283;22536;-77
2023/11/19 07:44:13;;;;;;;1.10;1.00;;;;;;;-1.60;98.37;100674.59;88448;277;135778;-79
2023/11/19 07:46:15;;;;;;;3.20;1.30;;;;;;;-1.56;98.38;100667.75;88586;281;22537;-75
2023/11/19 07:48:22;;;;;;;1.90;1.70;;;;;;;-1.52;97.66;100665.71;88374;277;137022;-78
2023/11/19 07:50:25;;;;;;;1.60;1.50;;;;;;;-1.48;97.37;100665.83;88526;275;22541;-75
2023/11/19 07:52:28;;;;;;;1.40;1.30;;;;;;;-1.45;97.55;100668.19;88452;283;138213;-76
2023/11/19 07:54:31;;;;;;;2.30;2.10;;;;;;;-1.40;97.87;100669.10;88871;272;25191;-74
2023/11/19 07:56:35;;;;;;;1.40;1.30;;;;;;;-1.35;97.79;100670.02;88461;277;135425;-78
2023/11/19 07:58:38;;;;;;;1.20;1.10;;;;;;;-1.29;97.28;100668.89;88818;275;22514;-77
2023/11/19 08:00:40;;;;;;;1.60;1.50;;;;;;;-1.22;97.03;100668.94;88646;277;135825;-74
2023/11/19 08:02:42;;;;;;;2.50;2.30;;;;;;;-1.17;96.99;100670.85;89030;280;24022;-78
2023/11/19 08:04:45;;;;;;;2.40;2.20;;;;;;;-1.13;96.85;100670.63;88838;280;137856;-79
2023/11/19 08:06:48;;;;;;;2.00;1.10;;;;;;;-1.12;96.42;100674.34;88574;272;24061;-77
2023/11/19 08:08:50;;;;;;;3.20;1.50;;;;;;;-1.11;95.85;100677.61;88441;282;135548;-78
2023/11/19 08:10:53;;;;;;;1.90;1.60;;;;;;;-1.16;95.41;100674.66;88658;273;24025;-77
2023/11/19 08:12:55;;;;;;;1.80;1.60;;;;;;;-1.23;95.68;100668.34;88552;280;135962;-77
2023/11/19 08:14:58;;;;;;;1.80;1.40;;;;;;;-1.31;96.22;100656.27;88665;279;22537;-76
2023/11/19 08:17:00;;;;;;;3.80;1.60;;;;;;;-1.32;96.43;100667.39;88554;277;135697;-79
2023/11/19 08:19:03;;;;;;;4.10;1.70;;;;;;;-1.33;96.39;100658.22;88716;280;22533;-76
2023/11/19 08:21:07;;;;;;;1.70;1.50;;;;;;;-1.33;96.55;100652.28;88523;280;136287;-79
2023/11/19 08:23:09;;;;;;;2.60;2.30;;;;;;;-1.32;96.80;100650.27;88858;282;22773;-76
2023/11/19 08:25:11;;;;;;;2.30;1.90;;;;;;;-1.31;97.28;100650.91;88649;277;135629;-76
2023/11/19 08:27:13;;;;;;;2.20;2.00;;;;;;;-1.28;96.99;100648.98;88609;275;25102;-79
2023/11/19 08:29:15;;;;;;;3.40;1.90;;;;;;;-1.26;96.75;100647.91;88473;275;135623;-77
2023/11/19 08:31:18;;;;;;;2.10;1.50;;;;;;;-1.23;96.84;100643.23;88751;280;22630;-78
2023/11/19 08:33:22;;;;;;;2.80;2.60;;;;;;;-1.21;96.69;100643.09;88473;275;135355;-73
2023/11/19 08:35:24;;;;;;;2.00;1.90;;;;;;;-1.19;96.64;100636.67;88764;273;24097;-73
2023/11/19 08:37:27;;;;;;;2.20;2.00;;;;;;;-1.18;96.79;100627.14;88515;273;136938;-76
2023/11/19 08:39:30;;;;;;;3.90;1.60;;;;;;;-1.14;96.87;100628.98;88683;280;22685;-74
2023/11/19 08:41:33;;;;;;;1.90;1.70;;;;;;;-1.11;95.76;100636.30;88924;280;135618;-77
2023/11/19 08:43:35;;;;;;;1.30;1.10;;;;;;;-1.11;95.55;100630.20;88964;273;24097;-76
2023/11/19 08:45:37;;;;;;;1.70;1.60;;;;;;;-1.11;95.36;100615.70;88530;277;135797;-76
2023/11/19 08:47:40;;;;;;;1.20;1.10;;;;;;;-1.11;95.17;100616.41;88614;280;22537;-77
2023/11/19 08:49:42;;;;;;;1.80;1.50;;;;;;;-1.11;94.73;100616.42;88668;280;136261;-78
2023/11/19 08:51:45;;;;;;;2.20;2.10;;;;;;;-1.13;95.05;100607.48;88668;277;23751;-76
2023/11/19 08:53:49;;;;;;;;;;;;;;;-1.10;95.55;100604.28;88906;273;135659;-78
2023/11/19 08:55:51;;;;;;;1.90;1.50;;;;;;;-1.17;96.10;100583.17;88698;280;24026;-80
2023/11/19 08:57:53;;;;;;;2.70;1.70;;;;;;;-1.08;95.74;100603.79;88645;282;135356;-71
2023/11/19 08:59:58;;;;;;;1.50;1.40;;;;;;;-1.07;95.29;100599.04;88630;280;22532;-78
2023/11/19 09:02:00;;;;;;;2.00;1.90;;;;;;;-1.07;94.90;100602.34;88573;280;135489;-78
2023/11/19 09:04:02;;;;;;;2.00;1.80;;;;;;;-1.04;94.60;100600.02;88655;280;25083;-78
2023/11/19 09:06:05;;;;;;;1.50;1.40;;;;;;;-1.02;94.24;100594.98;88624;273;25137;-74
2023/11/19 09:08:07;;;;;;;0.90;0.90;;;;;;;-1.01;93.98;100594.21;88542;280;136036;-76
2023/11/19 09:10:11;;;;;;;1.60;1.40;;;;;;;-1.06;93.82;100581.66;88682;282;24071;-77
2023/11/19 09:12:14;;;;;;;1.80;1.70;;;;;;;-1.04;94.52;100575.10;88522;280;135592;-77
2023/11/19 09:14:15;;;;;;;1.00;0.90;;;;;;;-1.03;94.64;100575.89;88845;273;23983;-74
2023/11/19 09:16:17;;;;;;;1.70;1.30;;;;;;;-0.98;94.23;100575.21;88372;283;136756;-79
2023/11/19 09:18:21;;;;;;;3.00;0.90;;;;;;;-0.95;94.13;100579.89;88671;280;24020;-76
2023/11/19 09:20:25;;;;;;;2.10;1.80;;;;;;;-0.93;93.40;100576.59;88598;277;135652;-78
2023/11/19 09:22:27;;;;;;;1.70;1.20;;;;;;;-0.90;93.78;100576.06;88601;281;25201;-80
2023/11/19 09:24:28;;;;;;;2.90;1.50;;;;;;;-0.87;93.99;100566.95;88601;277;135756;-75
2023/11/19 09:26:31;;;;;;;1.20;1.10;;;;;;;-0.83;93.96;100568.71;88590;282;25124;-73
2023/11/19 09:28:33;;;;;;;2.30;1.10;;;;;;;-0.79;93.37;100572.14;88612;273;135889;-76
2023/11/19 09:30:36;;;;;;;1.50;1.40;;;;;;;-0.80;93.00;100572.88;88634;282;22531;-76
2023/11/19 09:32:39;;;;;;;0.90;0.90;;;;;;;-0.83;93.07;100574.30;88462;275;135774;-73